• Join FlightAware (Why Join?)
  • Login
  • US Flag 
12:52PM EDT


 

Airport Tracker/Info


-or-


 

Live Flight TrackerFlight Track Log ✈ AWI3688 ✈ 03-May-2013 ✈ KALB - KPHL

Flight Track Log - Related Links

Times and Time Zones

All times are in EDT time to prevent confusion due to time zone crossing. See the AWI3688 flight status page for this flight to view local times or setup timezone preferences in your user account.

Time Position Orientation Groundspeed Altitude Reporting Facility
EDT Latitude Longitude Course Direction KTS MPH feet Rate Location/Type
02:04PM 42.7236 -73.8081 219° Southwest 155 178 1,200  Level Boston Center
02:05PM 42.6792 -73.8633 222° Southwest 232 267 4,100 2,220 Climbing Boston Center
02:06PM 42.6825 -74.3718 220° Southwest  Level FlightAware Approximate
02:06PM 42.6906 -73.9542 280° West 252 290 6,400  Level Boston Center
02:07PM 42.5699 -74.5002 223° Southwest  Level FlightAware Approximate
02:07PM 42.7078 -74.0592 283° West 271 312 9,100  Level Boston Center
02:08PM 42.4589 -74.6310 219° Southwest  Level FlightAware Approximate
02:08PM 42.7228 -74.1669 281° West 289 333 11,500  Level Boston Center
02:09PM 42.3856 -74.7124 219° Southwest  Level FlightAware Approximate
02:09PM 42.7378 -74.2719 281° West 303 349 13,600  Level Boston Center
02:10PM 42.6861 -74.3778 236° Southwest 298 343 15,600 1,800 Climbing Boston Center
02:11PM 42.6203 -74.4519 220° Southwest 323 372 17,200 1,500 Climbing Boston Center
02:12PM 42.5372 -74.5478 220° Southwest 350 403 18,600 900 Climbing Boston Center
02:13PM 42.4669 -74.6242 219° Southwest 360 414 19,000 180 Climbing Boston Center
02:14PM 42.3817 -74.7253 221° Southwest 365 420 19,000  Level Boston Center
02:15PM 42.3069 -74.8125 221° Southwest 365 420 19,000  Level Boston Center
02:17PM 42.1611 -74.9758 220° Southwest 359 413 19,000  Level New York Center
02:18PM 42.0625 -75.0589 212° Southwest 373 429 19,000  Level New York Center
02:19PM 41.9789 -75.1258 211° Southwest 397 457 19,000  Level New York Center
02:20PM 41.8844 -75.2033 211° Southwest 397 457 19,000 -540 Level New York Center
02:21PM 41.7814 -75.2825 210° Southwest 397 457 18,000 -1,260 Descending New York Center
02:22PM 41.6911 -75.3572 212° Southwest 392 451 16,500 -1,620 Descending New York Center
02:23PM 41.6050 -75.4261 211° Southwest 381 438 14,900 -1,680 Descending New York Center
02:24PM 41.5364 -75.4822 211° Southwest 352 405 13,200 -1,440 Descending New York Center
02:25PM 41.4611 -75.5406 210° Southwest 332 382 12,000 -600 Descending New York Center
02:26PM 41.3772 -75.6067 211° Southwest 327 376 12,000  Level New York Center
02:27PM 41.3039 -75.6647 211° Southwest 333 383 12,000  Level New York Center
02:28PM 41.2050 -75.6881 190° South 326 375 12,000  Level New York Center
02:29PM 41.1197 -75.6872 180° South 339 390 12,000 -480 Level New York Center
02:30PM 41.0322 -75.6864 180° South 326 375 11,100 -1,020 Descending New York Center
02:31PM 40.9406 -75.6881 181° South 311 358 10,000 -600 Descending New York Center
02:32PM 40.8697 -75.6883 180° South 300 345 10,000  Level New York Center
02:33PM 40.7864 -75.6853 178° South 300 345 10,000  Level New York Center
02:34PM 40.6989 -75.6844 180° South 293 337 10,000  Level New York Center
02:35PM 40.6217 -75.6869 181° South 288 331 10,000  Level New York Center
02:36PM 40.5650 -75.6475 152° Southeast 275 316 10,000  Level New York Center
02:37PM 40.5167 -75.5594 126° Southeast 262 302 10,000 -60 Level New York Center
02:38PM 40.4719 -75.4744 125° Southeast 276 318 9,900 -360 Descending New York Center
02:39PM 40.4089 -75.4375 156° South 246 283 9,300 -900 Descending New York Center
02:40PM 40.3339 -75.4378 180° South 260 299 8,100 -1,200 Descending New York Center
02:41PM 40.2631 -75.4358 179° South 272 313 7,000 -1,260 Descending New York Center
02:42PM 40.1806 -75.4139 169° South 273 314 5,700 -1,200 Descending New York Center
02:43PM 40.1169 -75.3878 163° South 273 314 4,600 -840 Descending New York Center
02:44PM 40.0406 -75.3719 171° South 266 306 4,000 -360 Descending New York Center
02:45PM 39.9833 -75.3500 164° South 256 295 4,000  Level Philadelphia TRACON
02:46PM 39.9167 -75.3333 169° South 220 253 4,000  Level Philadelphia TRACON
02:47PM 39.8667 -75.3333 180° South 196 226 4,000 -120 Level Philadelphia TRACON
02:48PM 39.8000 -75.3167 169° South 189 217 3,800 -240 Descending Philadelphia TRACON